Main page
METAR-TAF:

METAR-TAF

Airports :

Khartoum, Sudan

Khartoum International Airport

latitude: 15-36N, longitude: 032-33E, elevation: 382 m

Current weather observation

The report was made 29 minutes ago, at 13:30 UTC
Wind 10 kt from the North
Temperature 37°C
Humidity 7%
Pressure 1009 hPa
Visibility 10 km or more
no clouds below 1500 m and no cumulonimbus

METAR: HSSS 241330Z 36010KT CAVOK 37/M05 Q1009 NOSIG

Time: 16:59 (13:59 UTC)

Forecast

The report was made 2 hours and 59 minutes ago, at 11:00 UTC
Forecast valid from 24 at 12 UTC to 25 at 18 UTC
Wind 10 kt from the North with gusts up to 20 kt
Visibility 10 km or more
no clouds below 1500 m and no cumulonimbus
Temporary
from 24 at 16 UTC to 24 at 20 UTC
Visibility: 6000 m
Temporary
from 25 at 03 UTC to 25 at 09 UTC
Visibility: 4000 m
haze

TAF: HSSS 241100Z 2412/2518 36010G20KT CAVOK TEMPO 2416/2420 6000 NSC TEMPO 2503/2509 4000 HZ

Weather observations and forecasts of more than 4000 airports (METAR and TAF reports).

The available stations are represented by yellow and red dots on the map.

Hover mouse over dot to see the name of the station.

Then click to see weather observations and forecasts.

To change the map : click on the green buttons with a black cross to zoom in, on the green button with a dash to zoom out, or on the green arrows for adjacent maps.


METAR-TAF: